createdAt,value
2018-04-23T00:00:17.496Z,7.70
2018-04-23T00:02:45.017Z,6.80
2018-04-23T00:05:12.540Z,7.53
2018-04-23T00:07:40.802Z,6.80
2018-04-23T00:10:08.315Z,7.00
2018-04-23T00:12:35.815Z,7.63
2018-04-23T00:15:03.327Z,7.23
2018-04-23T00:17:30.826Z,7.20
2018-04-23T00:19:58.332Z,6.87
2018-04-23T00:22:25.880Z,7.80
2018-04-23T00:24:53.388Z,6.80
2018-04-23T00:27:20.887Z,7.20
2018-04-23T00:29:49.167Z,7.20
2018-04-23T00:32:17.440Z,7.00
2018-04-23T00:34:45.724Z,7.50
2018-04-23T00:37:13.259Z,6.20
2018-04-23T00:39:41.561Z,6.30
2018-04-23T00:42:09.123Z,7.10
2018-04-23T00:44:36.617Z,7.10
2018-04-23T00:47:04.132Z,7.00
2018-04-23T00:49:31.628Z,6.27
2018-04-23T00:51:59.140Z,7.07
2018-04-23T00:54:27.397Z,6.90
2018-04-23T00:56:54.916Z,7.40
2018-04-23T00:59:22.444Z,7.03
2018-04-23T01:01:49.957Z,7.57
2018-04-23T01:04:17.452Z,7.07
2018-04-23T01:06:45.756Z,7.97
2018-04-23T01:09:13.252Z,7.70
2018-04-23T01:11:41.576Z,7.00
2018-04-23T01:14:09.241Z,8.53
2018-04-23T01:16:36.792Z,8.23
2018-04-23T01:19:04.289Z,8.30
2018-04-23T01:21:31.813Z,8.60
2018-04-23T01:23:59.343Z,8.30
2018-04-23T01:26:27.621Z,7.40
2018-04-23T01:28:55.884Z,8.10
2018-04-23T01:31:23.397Z,7.90
2018-04-23T01:33:50.900Z,7.40
2018-04-23T01:36:18.412Z,7.63
2018-04-23T01:38:45.909Z,8.30
2018-04-23T01:41:13.421Z,7.57
2018-04-23T01:43:40.965Z,7.70
2018-04-23T01:46:08.528Z,8.67
2018-04-23T01:48:36.028Z,7.63
2018-04-23T01:51:03.548Z,8.03
2018-04-23T01:53:31.052Z,8.20
2018-04-23T01:55:58.564Z,7.20
2018-04-23T01:58:26.121Z,8.00
2018-04-23T02:00:53.609Z,8.00
2018-04-23T02:03:21.104Z,8.03
2018-04-23T02:05:48.617Z,8.10
2018-04-23T02:08:16.112Z,7.97
2018-04-23T02:10:43.628Z,7.87
2018-04-23T02:13:11.128Z,8.30
2018-04-23T02:15:39.428Z,8.00
2018-04-23T02:18:07.719Z,7.90
2018-04-23T02:20:35.275Z,8.27
2018-04-23T02:23:02.840Z,8.40
2018-04-23T02:25:30.360Z,8.20
2018-04-23T02:27:59.369Z,8.40
2018-04-23T02:30:27.665Z,7.67
2018-04-23T02:32:55.164Z,8.30
2018-04-23T02:35:22.660Z,8.17
2018-04-23T02:37:50.956Z,7.40
2018-04-23T02:40:18.451Z,7.87
2018-04-23T02:42:45.956Z,7.70
2018-04-23T02:45:14.212Z,6.93
2018-04-23T02:47:41.729Z,8.37
2018-04-23T02:50:09.228Z,7.83
2018-04-23T02:52:36.741Z,7.33
2018-04-23T02:55:04.285Z,8.47
2018-04-23T02:57:31.804Z,8.83
2018-04-23T02:59:59.295Z,7.93
2018-04-23T03:02:26.814Z,8.50
2018-04-23T03:04:55.083Z,8.43
2018-04-23T03:07:22.593Z,8.40
2018-04-23T03:09:50.089Z,8.57
2018-04-23T03:12:17.604Z,8.60
2018-04-23T03:14:45.104Z,9.53
2018-04-23T03:17:12.616Z,9.13
2018-04-23T03:19:40.879Z,8.13
2018-04-23T03:22:09.153Z,8.63
2018-04-23T03:24:37.411Z,7.70
2018-04-23T03:27:05.687Z,8.47
2018-04-23T03:29:33.305Z,7.83
2018-04-23T03:32:00.844Z,7.87
2018-04-23T03:34:28.341Z,7.53
2018-04-23T03:36:55.849Z,7.50
2018-04-23T03:39:24.110Z,7.90
2018-04-23T03:41:51.620Z,7.67
2018-04-23T03:44:19.111Z,7.00
2018-04-23T03:46:46.624Z,7.57
2018-04-23T03:49:14.121Z,7.97
2018-04-23T03:51:43.145Z,7.17
2018-04-23T03:54:11.404Z,7.63
2018-04-23T03:56:39.684Z,7.37
2018-04-23T03:59:07.180Z,8.10
2018-04-23T04:01:34.732Z,7.77
2018-04-23T04:04:02.228Z,7.50
2018-04-23T04:06:29.740Z,8.23
2018-04-23T04:08:58.004Z,7.87
2018-04-23T04:11:26.292Z,8.90
2018-04-23T04:14:06.291Z,8.67
2018-04-23T04:16:46.057Z,8.17
2018-04-23T04:19:13.561Z,8.20
2018-04-23T04:21:41.424Z,8.17
2018-04-23T04:24:08.929Z,8.10
2018-04-23T04:26:36.444Z,9.37
2018-04-23T04:29:03.936Z,8.50
2018-04-23T04:31:31.451Z,8.50
2018-04-23T04:33:58.948Z,8.73
2018-04-23T04:36:26.444Z,8.20
2018-04-23T04:38:54.725Z,8.07
2018-04-23T04:41:23.023Z,8.40
2018-04-23T04:43:50.566Z,9.23
2018-04-23T04:46:18.816Z,8.47
2018-04-23T04:48:46.337Z,9.00
2018-04-23T04:51:13.833Z,8.43
2018-04-23T04:53:41.344Z,8.77
2018-04-23T04:56:08.839Z,7.80
2018-04-23T04:58:37.870Z,7.90
2018-04-23T05:01:06.135Z,7.70
2018-04-23T05:03:34.429Z,7.90
2018-04-23T05:06:01.927Z,8.53
2018-04-23T05:08:29.441Z,7.63
2018-04-23T05:10:56.940Z,7.90
2018-04-23T05:13:24.458Z,8.13
2018-04-23T05:15:51.954Z,8.40
2018-04-23T05:18:19.464Z,7.77
2018-04-23T05:20:47.724Z,7.60
2018-04-23T05:23:15.233Z,7.30
2018-04-23T05:25:42.737Z,7.50
2018-04-23T05:28:10.254Z,8.13
2018-04-23T05:30:37.752Z,7.90
2018-04-23T05:33:05.264Z,8.80
2018-04-23T05:35:32.760Z,8.00
2018-04-23T05:38:00.276Z,7.67
2018-04-23T05:40:27.811Z,9.03
2018-04-23T05:42:55.328Z,8.90
2018-04-23T05:45:22.820Z,8.17
2018-04-23T05:47:51.097Z,8.27
2018-04-23T05:50:19.360Z,7.40
2018-04-23T05:52:47.641Z,7.77
2018-04-23T05:55:15.908Z,8.23
2018-04-23T05:57:43.425Z,7.30
2018-04-23T06:00:10.915Z,7.30
2018-04-23T06:02:38.428Z,8.10
2018-04-23T06:05:05.934Z,7.20
2018-04-23T06:07:33.457Z,8.00
2018-04-23T06:10:00.958Z,6.63
2018-04-23T06:12:29.240Z,7.43
2018-04-23T06:14:57.500Z,7.60
2018-04-23T06:17:25.012Z,6.90
2018-04-23T06:19:52.508Z,7.00
2018-04-23T06:22:21.529Z,6.53
2018-04-23T06:24:49.788Z,8.23
2018-04-23T06:27:17.300Z,6.77
2018-04-23T06:29:44.792Z,7.57
2018-04-23T06:32:12.300Z,7.20
2018-04-23T06:34:39.799Z,7.73
2018-04-23T06:37:07.291Z,6.70
2018-04-23T06:39:35.568Z,6.80
2018-04-23T06:42:03.829Z,7.10
2018-04-23T06:44:31.340Z,7.63
2018-04-23T06:46:58.881Z,7.47
2018-04-23T06:49:26.393Z,7.50
2018-04-23T06:51:53.996Z,6.70
2018-04-23T06:54:21.504Z,5.93
2018-04-23T06:56:48.996Z,7.27
2018-04-23T06:59:17.278Z,6.13
2018-04-23T07:01:45.576Z,7.00
2018-04-23T07:04:13.088Z,6.87
2018-04-23T07:06:40.581Z,6.50
2018-04-23T07:09:08.096Z,7.00
2018-04-23T07:11:35.594Z,6.97
2018-04-23T07:14:03.109Z,7.20
2018-04-23T07:16:30.602Z,7.33
2018-04-23T07:18:58.128Z,6.40
2018-04-23T07:21:25.733Z,7.30
2018-04-23T07:23:53.248Z,7.00
2018-04-23T07:26:20.748Z,6.87
2018-04-23T07:28:48.271Z,7.40
2018-04-23T07:31:15.775Z,6.60
2018-04-23T07:33:43.324Z,7.27
2018-04-23T07:36:10.817Z,6.80
2018-04-23T07:38:38.337Z,7.50
2018-04-23T07:41:05.823Z,6.43
2018-04-23T07:43:33.337Z,6.43
2018-04-23T07:46:01.596Z,5.90
2018-04-23T07:48:29.117Z,6.60
2018-04-23T07:50:56.616Z,5.80
2018-04-23T07:53:24.132Z,6.10
2018-04-23T07:55:51.629Z,7.17
2018-04-23T08:00:53.184Z,5.97
2018-04-23T08:03:20.696Z,6.27
2018-04-23T08:05:48.192Z,6.40
2018-04-23T08:08:15.719Z,5.70
2018-04-23T08:10:43.261Z,5.90
2018-04-23T08:13:10.767Z,6.27
2018-04-23T08:15:38.260Z,4.60
2018-04-23T08:18:06.544Z,4.73
2018-04-23T08:20:34.803Z,4.10
2018-04-23T08:23:02.402Z,4.40
2018-04-23T08:25:29.944Z,4.40
2018-04-23T08:27:57.432Z,4.60
2018-04-23T08:30:24.933Z,5.47
2018-04-23T08:32:52.444Z,5.13
2018-04-23T08:35:19.940Z,4.67
2018-04-23T08:37:47.437Z,4.60
2018-04-23T08:40:14.961Z,4.90
2018-04-23T08:42:42.456Z,3.80
2018-04-23T08:45:09.980Z,5.13
2018-04-23T08:47:37.574Z,4.40
2018-04-23T08:50:05.084Z,4.23
2018-04-23T08:52:32.580Z,4.33
2018-04-23T08:55:00.864Z,4.83
2018-04-23T08:57:28.361Z,4.63
2018-04-23T08:59:55.875Z,5.20
2018-04-23T09:02:23.372Z,4.60
2018-04-23T09:04:50.896Z,6.03
2018-04-23T09:07:18.457Z,4.40
2018-04-23T09:09:46.016Z,4.60
2018-04-23T09:12:13.515Z,5.00
2018-04-23T09:14:41.025Z,4.50
2018-04-23T09:17:09.284Z,5.30
2018-04-23T09:19:37.585Z,5.30
2018-04-23T09:22:05.085Z,4.90
2018-04-23T09:24:32.595Z,4.87
2018-04-23T09:27:00.864Z,4.80
2018-04-23T09:29:29.148Z,4.37
2018-04-23T09:31:56.644Z,4.27
2018-04-23T09:34:24.154Z,4.30
2018-04-23T09:36:52.412Z,4.97
2018-04-23T09:39:19.921Z,4.57
2018-04-23T09:41:47.461Z,4.70
2018-04-23T09:44:14.977Z,4.60
2018-04-23T09:46:42.475Z,4.63
2018-04-23T09:49:10.003Z,4.10
2018-04-23T09:51:37.500Z,4.20
2018-04-23T09:54:05.015Z,4.33
2018-04-23T09:56:32.512Z,4.33
2018-04-23T09:59:00.064Z,4.20
2018-04-23T10:01:29.489Z,3.90
2018-04-23T10:04:11.876Z,4.50
2018-04-23T10:06:39.437Z,3.67
2018-04-23T10:09:06.997Z,3.87
2018-04-23T10:11:34.496Z,4.60
2018-04-23T10:14:02.130Z,3.83
2018-04-23T10:16:29.628Z,4.47
2018-04-23T10:18:58.657Z,4.47
2018-04-23T10:21:26.918Z,4.30
2018-04-23T10:23:54.428Z,4.60
2018-04-23T10:26:21.929Z,4.50
2018-04-23T10:28:49.437Z,4.20
2018-04-23T10:31:16.936Z,4.07
2018-04-23T10:33:44.445Z,4.40
2018-04-23T10:36:11.993Z,4.00
2018-04-23T10:38:39.501Z,4.23
2018-04-23T10:41:06.998Z,4.53
2018-04-23T10:43:35.257Z,4.20
2018-04-23T10:46:02.781Z,4.77
2018-04-23T10:48:30.276Z,4.00
2018-04-23T10:50:58.573Z,4.20
2018-04-23T10:53:26.840Z,4.60
2018-04-23T10:55:55.117Z,4.67
2018-04-23T10:58:23.384Z,3.90
2018-04-23T11:00:51.662Z,4.10
2018-04-23T11:03:19.927Z,5.00
2018-04-23T11:05:47.512Z,4.63
2018-04-23T11:08:15.007Z,4.07
2018-04-23T11:10:42.524Z,4.40
2018-04-23T11:13:10.790Z,5.20
2018-04-23T11:15:39.068Z,5.20
2018-04-23T11:18:07.336Z,4.77
2018-04-23T11:20:35.616Z,4.80
2018-04-23T11:23:03.874Z,4.80
2018-04-23T11:25:31.389Z,4.80
2018-04-23T11:27:58.892Z,4.93
2018-04-23T11:30:26.412Z,5.00
2018-04-23T11:32:53.920Z,4.43
2018-04-23T11:35:22.201Z,4.30
2018-04-23T11:37:50.468Z,4.50
2018-04-23T11:40:18.056Z,5.63
2018-04-23T11:42:45.552Z,4.57
2018-04-23T11:45:13.113Z,5.03
2018-04-23T11:47:40.588Z,4.97
2018-04-23T11:50:08.107Z,5.37
2018-04-23T11:52:35.604Z,4.73
2018-04-23T11:55:03.123Z,4.77
2018-04-23T11:57:30.620Z,4.47
2018-04-23T11:59:58.137Z,5.47
2018-04-23T12:02:25.632Z,5.00
2018-04-23T12:04:53.145Z,6.20
2018-04-23T12:07:20.648Z,4.80
2018-04-23T12:09:48.168Z,5.50
2018-04-23T12:12:15.674Z,5.60
2018-04-23T12:14:43.193Z,4.90
2018-04-23T12:17:10.689Z,5.33
2018-04-23T12:19:38.212Z,5.70
2018-04-23T12:22:05.709Z,5.80
2018-04-23T12:24:33.224Z,5.87
2018-04-23T12:27:00.732Z,5.73
2018-04-23T12:29:29.012Z,5.60
2018-04-23T12:31:57.276Z,5.97
2018-04-23T12:34:25.025Z,5.53
2018-04-23T12:36:52.525Z,6.17
2018-04-23T12:39:20.805Z,5.33
2018-04-23T12:41:48.296Z,5.73
2018-04-23T12:44:15.792Z,5.77
2018-04-23T12:46:43.304Z,5.30
2018-04-23T12:49:10.804Z,5.70
2018-04-23T12:51:38.321Z,5.00
2018-04-23T12:54:05.821Z,5.00
2018-04-23T12:56:33.328Z,4.90
2018-04-23T12:59:00.832Z,4.40
2018-04-23T13:01:28.345Z,5.30
2018-04-23T13:03:55.840Z,5.40
2018-04-23T13:06:23.364Z,5.70
2018-04-23T13:08:50.860Z,4.77
2018-04-23T13:11:18.369Z,5.13
2018-04-23T13:13:45.868Z,5.03
2018-04-23T13:16:13.377Z,4.73
2018-04-23T13:18:40.876Z,5.67
2018-04-23T13:21:08.391Z,5.37
2018-04-23T13:23:35.892Z,5.47
2018-04-23T13:26:03.408Z,5.60
2018-04-23T13:28:30.909Z,4.80
2018-04-23T13:30:58.421Z,5.90
2018-04-23T13:33:25.920Z,6.20
2018-04-23T13:35:53.437Z,5.80
2018-04-23T13:38:21.696Z,6.07
2018-04-23T13:40:49.972Z,5.80
2018-04-23T13:43:18.232Z,5.97
2018-04-23T13:45:45.751Z,6.20
2018-04-23T13:48:13.253Z,6.17
2018-04-23T13:50:40.760Z,6.13
2018-04-23T13:53:08.267Z,6.20
2018-04-23T13:55:35.804Z,5.90
2018-04-23T13:58:04.068Z,6.37
2018-04-23T14:00:31.580Z,7.33
2018-04-23T14:02:59.844Z,7.53
2018-04-23T14:05:27.362Z,9.50
2018-04-23T14:07:54.859Z,8.70
2018-04-23T14:10:22.372Z,8.50
2018-04-23T14:12:49.872Z,10.00
2018-04-23T14:15:17.390Z,9.53
2018-04-23T14:17:44.944Z,10.73
2018-04-23T14:20:13.201Z,11.27
2018-04-23T14:22:40.708Z,9.90
2018-04-23T14:25:08.226Z,9.73
2018-04-23T14:27:35.724Z,9.27
2018-04-23T14:30:03.242Z,9.33
2018-04-23T14:32:30.744Z,9.67
2018-04-23T14:34:58.257Z,9.00
2018-04-23T14:37:25.778Z,8.70
2018-04-23T14:39:54.069Z,9.27
2018-04-23T14:42:22.334Z,7.50
2018-04-23T14:44:50.592Z,7.40
2018-04-23T14:47:18.108Z,7.63
2018-04-23T14:49:45.604Z,6.70
2018-04-23T14:52:13.372Z,7.00
2018-04-23T14:54:40.864Z,6.50
2018-04-23T14:57:08.376Z,6.10
2018-04-23T14:59:35.878Z,5.77
2018-04-23T15:02:03.397Z,5.20
2018-04-23T15:04:30.901Z,6.00
2018-04-23T15:06:58.412Z,6.37
2018-04-23T15:09:25.908Z,4.83
2018-04-23T15:11:54.185Z,4.93
2018-04-23T15:14:22.441Z,4.70
2018-04-23T15:16:50.725Z,5.30
2018-04-23T15:19:18.985Z,4.60
2018-04-23T15:21:46.504Z,3.90
2018-04-23T15:24:13.999Z,4.33
2018-04-23T15:26:41.507Z,3.80
2018-04-23T15:29:09.003Z,4.20
2018-04-23T15:31:36.516Z,4.80
2018-04-23T15:34:04.020Z,4.57
2018-04-23T15:36:31.541Z,4.87
2018-04-23T15:38:59.046Z,4.40
2018-04-23T15:41:26.556Z,4.00
2018-04-23T15:43:54.048Z,4.03
2018-04-23T15:46:21.559Z,4.70
2018-04-23T15:48:49.059Z,5.80
2018-04-23T15:51:16.672Z,4.57
2018-04-23T15:53:44.237Z,4.43
2018-04-23T15:56:11.793Z,4.87
2018-04-23T15:58:39.292Z,4.40
2018-04-23T16:01:06.812Z,4.67
2018-04-23T16:03:34.308Z,4.70
2018-04-23T16:06:01.820Z,4.90
2018-04-23T16:08:29.312Z,4.37
2018-04-23T16:10:56.833Z,5.23
2018-04-23T16:13:25.095Z,4.67
2018-04-23T16:15:53.394Z,4.30
2018-04-23T16:18:20.894Z,4.47
2018-04-23T16:20:48.413Z,5.30
2018-04-23T16:23:15.912Z,5.83
2018-04-23T16:25:43.423Z,4.20
2018-04-23T16:28:10.950Z,4.50
2018-04-23T16:30:38.447Z,4.30
2018-04-23T16:33:05.954Z,4.20
2018-04-23T16:35:33.469Z,3.97
2018-04-23T16:38:00.973Z,4.67
2018-04-23T16:40:28.470Z,4.60
2018-04-23T16:42:55.980Z,4.47
2018-04-23T16:45:23.486Z,4.23
2018-04-23T16:47:51.001Z,3.80
2018-04-23T16:50:18.497Z,3.90
2018-04-23T16:52:46.026Z,3.70
2018-04-23T16:55:13.524Z,3.40
2018-04-23T16:57:41.037Z,3.33
2018-04-23T17:00:08.535Z,4.10
2018-04-23T17:02:36.044Z,3.97
2018-04-23T17:05:03.559Z,4.10
2018-04-23T17:07:31.112Z,4.10
2018-04-23T17:09:58.605Z,3.50
2018-04-23T17:12:26.121Z,3.53
2018-04-23T17:14:54.384Z,4.07
2018-04-23T17:17:22.661Z,3.77
2018-04-23T17:19:50.929Z,3.53
2018-04-23T17:22:18.447Z,3.73
2018-04-23T17:24:45.940Z,3.70
2018-04-23T17:27:13.533Z,4.00
2018-04-23T17:29:41.030Z,3.47
2018-04-23T17:32:08.540Z,4.00
2018-04-23T17:34:36.800Z,4.73
2018-04-23T17:37:05.080Z,3.57
2018-04-23T17:39:33.344Z,4.23
2018-04-23T17:42:00.852Z,3.63
2018-04-23T17:44:28.352Z,5.07
2018-04-23T17:46:55.876Z,3.80
2018-04-23T17:49:23.394Z,4.87
2018-04-23T17:51:51.773Z,5.00
2018-04-23T17:54:20.036Z,4.73
2018-04-23T17:56:48.301Z,3.77
2018-04-23T17:59:15.821Z,4.30
2018-04-23T18:01:43.316Z,4.13
2018-04-23T18:04:10.874Z,4.60
2018-04-23T18:06:38.348Z,5.97
2018-04-23T18:09:06.627Z,5.10
2018-04-23T18:11:34.888Z,4.73
2018-04-23T18:14:03.913Z,4.40
2018-04-23T18:16:31.408Z,4.30
2018-04-23T18:18:58.921Z,4.53
2018-04-23T18:21:27.185Z,4.65
2018-04-23T18:23:55.461Z,4.43
2018-04-23T18:26:23.724Z,4.50
2018-04-23T18:28:51.239Z,4.40
2018-04-23T18:31:19.650Z,5.07
2018-04-23T18:33:47.153Z,4.50
2018-04-23T18:36:14.716Z,4.00
2018-04-23T18:38:42.312Z,5.10
2018-04-23T18:41:10.165Z,4.17
2018-04-23T18:43:38.496Z,4.73
2018-04-23T18:46:06.784Z,5.10
2018-04-23T18:48:35.044Z,5.30
2018-04-23T18:51:02.559Z,6.07
2018-04-23T18:53:30.055Z,6.10
2018-04-23T18:55:57.572Z,5.23
2018-04-23T18:58:25.068Z,4.97
2018-04-23T19:00:52.657Z,5.70
2018-04-23T19:03:20.916Z,4.77
2018-04-23T19:05:49.225Z,5.03
2018-04-23T19:08:16.709Z,7.00
2018-04-23T19:10:44.224Z,5.07
2018-04-23T19:13:11.724Z,5.20
2018-04-23T19:15:39.236Z,4.90
2018-04-23T19:18:07.498Z,5.33
2018-04-23T19:20:35.780Z,5.60
2018-04-23T19:23:04.078Z,5.43
2018-04-23T19:25:31.633Z,6.73
2018-04-23T19:27:59.132Z,5.70
2018-04-23T19:30:26.648Z,6.20
2018-04-23T19:32:54.198Z,8.20
2018-04-23T19:35:21.693Z,6.33
2018-04-23T19:37:49.200Z,5.57
2018-04-23T19:40:17.506Z,5.70
2018-04-23T19:42:45.760Z,5.10
2018-04-23T19:45:14.048Z,5.80
2018-04-23T19:47:41.545Z,6.63
2018-04-23T19:50:09.056Z,7.17
2018-04-23T19:52:37.340Z,6.47
2018-04-23T19:55:05.616Z,5.97
2018-04-23T19:57:33.121Z,5.97
2018-04-23T20:00:00.641Z,15.40
2018-04-23T20:02:28.144Z,14.80
2018-04-23T20:04:55.651Z,6.60
2018-04-23T20:07:23.149Z,5.80
2018-04-23T20:09:50.660Z,5.77
2018-04-23T20:12:18.921Z,5.40
2018-04-23T20:14:47.206Z,6.80
2018-04-23T20:17:15.470Z,6.63
2018-04-23T20:19:42.979Z,6.10
2018-04-23T20:22:10.481Z,6.13
2018-04-23T20:24:37.989Z,5.50
2018-04-23T20:27:05.497Z,5.90
2018-04-23T20:29:33.008Z,6.23
2018-04-23T20:32:00.504Z,5.50
2018-04-23T20:34:28.017Z,6.80
2018-04-23T20:36:55.567Z,5.63
2018-04-23T20:39:23.093Z,6.63
2018-04-23T20:41:51.357Z,6.40
2018-04-23T20:44:18.940Z,6.60
2018-04-23T20:46:46.388Z,6.73
2018-04-23T20:49:14.649Z,7.53
2018-04-23T20:51:42.165Z,10.50
2018-04-23T20:54:09.663Z,6.70
2018-04-23T20:56:37.172Z,7.33
2018-04-23T20:59:04.669Z,6.37
2018-04-23T21:01:32.181Z,6.77
2018-04-23T21:03:59.679Z,8.33
2018-04-23T21:06:27.188Z,8.17
2018-04-23T21:08:54.684Z,7.30
2018-04-23T21:11:22.209Z,11.23
2018-04-23T21:13:49.771Z,8.20
2018-04-23T21:16:17.298Z,8.13
2018-04-23T21:18:44.792Z,7.50
2018-04-23T21:21:12.300Z,7.63
2018-04-23T21:23:40.565Z,8.70
2018-04-23T21:26:08.177Z,8.87
2018-04-23T21:28:35.676Z,9.13
2018-04-23T21:31:03.189Z,9.27
2018-04-23T21:33:31.452Z,10.80
2018-04-23T21:35:59.752Z,10.30
2018-04-23T21:38:27.253Z,7.93
2018-04-23T21:40:54.760Z,9.53
2018-04-23T21:43:22.320Z,10.27
2018-04-23T21:45:49.857Z,11.03
2018-04-23T21:48:18.120Z,9.50
2018-04-23T21:50:45.629Z,8.77
2018-04-23T21:53:13.128Z,10.30
2018-04-23T21:55:40.640Z,10.60
2018-04-23T21:58:08.189Z,10.50
2018-04-23T22:00:35.700Z,8.63
2018-04-23T22:03:03.196Z,9.07
2018-04-23T22:05:31.472Z,7.67
2018-04-23T22:07:59.732Z,8.90
2018-04-23T22:10:27.315Z,9.03
2018-04-23T22:12:54.810Z,9.10
2018-04-23T22:15:22.320Z,8.37
2018-04-23T22:17:50.580Z,8.40
2018-04-23T22:20:18.096Z,9.30
2018-04-23T22:22:45.597Z,8.43
2018-04-23T22:25:13.114Z,9.07
2018-04-23T22:27:40.620Z,8.30
2018-04-23T22:30:08.899Z,9.00
2018-04-23T22:32:37.160Z,7.73
2018-04-23T22:35:04.668Z,9.27
2018-04-23T22:37:32.164Z,9.20
2018-04-23T22:39:59.664Z,9.07
2018-04-23T22:42:27.181Z,9.57
2018-04-23T22:44:54.676Z,9.30
2018-04-23T22:47:22.957Z,8.50
2018-04-23T22:49:50.516Z,7.60
2018-04-23T22:52:18.028Z,7.73
2018-04-23T22:54:45.636Z,7.37
2018-04-23T22:57:13.152Z,8.60
2018-04-23T22:59:40.673Z,7.43
2018-04-23T23:02:08.196Z,8.83
2018-04-23T23:04:36.459Z,8.20
2018-04-23T23:07:03.972Z,8.07
2018-04-23T23:09:31.481Z,8.87
2018-04-23T23:11:59.760Z,7.40
2018-04-23T23:14:28.021Z,8.10
2018-04-23T23:16:57.045Z,7.10
2018-04-23T23:19:24.540Z,8.30
2018-04-23T23:21:52.056Z,8.03
2018-04-23T23:24:19.552Z,7.80
2018-04-23T23:26:47.060Z,8.30
2018-04-23T23:29:15.328Z,7.80
2018-04-23T23:31:42.845Z,8.00
2018-04-23T23:34:10.340Z,8.13
2018-04-23T23:36:37.858Z,7.73
2018-04-23T23:39:06.148Z,7.80
2018-04-23T23:41:33.664Z,8.40
2018-04-23T23:44:01.195Z,7.40
2018-04-23T23:46:30.196Z,8.20
2018-04-23T23:48:58.493Z,8.60
2018-04-23T23:51:26.042Z,8.10
2018-04-23T23:53:54.324Z,7.60
2018-04-23T23:56:21.840Z,8.20
2018-04-23T23:58:49.341Z,7.80
